createdAt,value
2022-10-17T00:02:24.985Z,9.91
2022-10-17T00:05:53.280Z,9.95
2022-10-17T00:08:57.744Z,9.93
2022-10-17T00:12:02.814Z,9.93
2022-10-17T00:15:29.571Z,9.95
2022-10-17T00:18:31.522Z,9.87
2022-10-17T00:21:37.504Z,9.79
2022-10-17T00:24:39.451Z,9.75
2022-10-17T00:27:50.990Z,9.71
2022-10-17T00:31:05.861Z,9.67
2022-10-17T00:34:11.318Z,9.62
2022-10-17T00:37:20.444Z,9.59
2022-10-17T00:40:25.333Z,9.66
2022-10-17T00:43:33.480Z,9.61
2022-10-17T00:46:36.773Z,9.58
2022-10-17T00:49:39.324Z,9.51
2022-10-17T00:52:41.942Z,9.50
2022-10-17T00:55:53.885Z,9.48
2022-10-17T00:58:59.952Z,9.45
2022-10-17T01:02:07.220Z,9.41
2022-10-17T01:05:16.117Z,9.38
2022-10-17T01:08:28.626Z,9.38
2022-10-17T01:11:42.094Z,9.33
2022-10-17T01:15:09.081Z,9.30
2022-10-17T01:18:29.276Z,9.24
2022-10-17T01:21:52.683Z,9.21
2022-10-17T01:25:16.022Z,9.23
2022-10-17T01:28:36.787Z,9.35
2022-10-17T01:32:00.858Z,9.30
2022-10-17T01:35:19.525Z,9.23
2022-10-17T01:38:38.927Z,9.21
2022-10-17T01:41:47.427Z,9.13
2022-10-17T01:45:21.132Z,9.16
2022-10-17T01:48:30.385Z,9.19
2022-10-17T01:51:50.705Z,9.12
2022-10-17T01:55:27.240Z,9.06
2022-10-17T01:58:30.323Z,9.04
2022-10-17T02:01:33.745Z,9.03
2022-10-17T02:04:36.090Z,8.98
2022-10-17T02:07:44.950Z,8.94
2022-10-17T02:10:47.191Z,8.92
2022-10-17T02:14:10.218Z,8.93
2022-10-17T02:17:35.209Z,8.89
2022-10-17T02:20:56.567Z,8.88
2022-10-17T02:24:42.408Z,8.87
2022-10-17T02:27:54.454Z,8.87
2022-10-17T02:31:06.478Z,8.87
2022-10-17T02:34:19.497Z,8.88
2022-10-17T02:37:23.884Z,8.93
2022-10-17T02:40:27.746Z,8.88
2022-10-17T02:43:33.379Z,8.89
2022-10-17T02:46:47.225Z,8.97
2022-10-17T02:49:54.167Z,8.94
2022-10-17T02:52:59.603Z,9.00
2022-10-17T02:56:15.320Z,8.96
2022-10-17T02:59:20.491Z,8.90
2022-10-17T03:02:22.999Z,8.91
2022-10-17T03:05:34.437Z,9.02
2022-10-17T03:08:59.658Z,8.95
2022-10-17T03:12:11.965Z,9.00
2022-10-17T03:15:15.040Z,9.13
2022-10-17T03:18:25.219Z,9.08
2022-10-17T03:21:27.808Z,9.11
2022-10-17T03:31:15.534Z,9.01
2022-10-17T03:34:26.491Z,9.02
2022-10-17T03:37:35.338Z,8.97
2022-10-17T03:40:51.903Z,9.05
2022-10-17T03:44:03.584Z,9.05
2022-10-17T03:47:13.448Z,9.01
2022-10-17T03:50:20.838Z,9.01
2022-10-17T03:53:32.491Z,9.04
2022-10-17T03:56:44.999Z,9.12
2022-10-17T03:59:58.318Z,9.12
2022-10-17T04:03:00.454Z,9.01
2022-10-17T04:06:14.424Z,9.04
2022-10-17T04:09:17.949Z,9.06
2022-10-17T04:12:26.840Z,9.01
2022-10-17T04:15:30.059Z,8.91
2022-10-17T04:18:41.725Z,8.87
2022-10-17T04:21:51.164Z,8.91
2022-10-17T04:25:07.806Z,8.90
2022-10-17T04:28:15.534Z,8.96
2022-10-17T04:31:36.019Z,8.93
2022-10-17T04:38:02.029Z,8.94
2022-10-17T04:41:18.852Z,8.89
2022-10-17T04:44:21.010Z,8.89
2022-10-17T04:47:49.105Z,8.89
2022-10-17T04:51:08.039Z,8.90
2022-10-17T04:54:19.689Z,8.90
2022-10-17T04:57:34.165Z,8.89
2022-10-17T05:00:48.151Z,8.84
2022-10-17T05:03:54.399Z,8.84
2022-10-17T05:06:59.903Z,8.84
2022-10-17T05:10:02.004Z,8.83
2022-10-17T05:13:11.701Z,8.85
2022-10-17T05:16:16.113Z,8.88
2022-10-17T05:19:19.190Z,8.91
2022-10-17T05:26:12.830Z,8.92
2022-10-17T05:29:15.750Z,9.01
2022-10-17T05:32:32.220Z,8.97
2022-10-17T05:35:36.033Z,8.99
2022-10-17T05:38:39.351Z,9.04
2022-10-17T05:41:41.701Z,9.06
2022-10-17T05:44:49.228Z,9.09
2022-10-17T05:47:56.059Z,9.10
2022-10-17T05:51:13.876Z,9.14
2022-10-17T05:54:17.922Z,9.20
2022-10-17T05:57:20.344Z,9.30
2022-10-17T06:00:23.128Z,9.40
2022-10-17T06:03:35.108Z,9.54
2022-10-17T06:06:39.845Z,9.61
2022-10-17T06:10:07.433Z,9.73
2022-10-17T06:13:10.998Z,9.93
2022-10-17T06:16:13.322Z,10.11
2022-10-17T06:19:15.698Z,10.27
2022-10-17T06:22:28.641Z,10.53
2022-10-17T06:25:41.514Z,10.72
2022-10-17T06:28:57.312Z,10.79
2022-10-17T06:32:03.903Z,10.83
2022-10-17T06:35:13.051Z,10.89
2022-10-17T06:38:19.162Z,11.02
2022-10-17T06:41:32.845Z,11.14
2022-10-17T06:44:40.647Z,11.28
2022-10-17T06:47:49.021Z,11.42
2022-10-17T06:50:51.582Z,11.60
2022-10-17T06:53:54.306Z,11.74
2022-10-17T06:56:57.076Z,11.89
2022-10-17T07:00:00.676Z,12.03
2022-10-17T07:03:05.714Z,12.19
2022-10-17T07:06:08.105Z,12.23
2022-10-17T07:09:12.924Z,12.40
2022-10-17T07:12:15.608Z,12.49
2022-10-17T07:15:20.033Z,12.67
2022-10-17T07:18:22.599Z,12.80
2022-10-17T07:21:26.216Z,12.83
2022-10-17T07:24:28.301Z,13.06
2022-10-17T07:27:30.706Z,13.13
2022-10-17T07:30:33.799Z,13.20
2022-10-17T07:33:36.460Z,13.34
2022-10-17T07:36:39.220Z,13.34
2022-10-17T07:39:41.286Z,13.49
2022-10-17T07:42:43.784Z,13.35
2022-10-17T07:45:46.765Z,13.51
2022-10-17T07:48:53.237Z,13.58
2022-10-17T07:51:55.930Z,13.77
2022-10-17T07:54:58.390Z,13.88
2022-10-17T07:58:00.626Z,13.96
2022-10-17T08:01:04.117Z,13.83
2022-10-17T08:04:07.995Z,13.97
2022-10-17T08:07:20.648Z,14.02
2022-10-17T08:10:27.984Z,14.26
2022-10-17T08:13:30.361Z,14.28
2022-10-17T08:16:32.907Z,14.48
2022-10-17T08:19:42.372Z,14.46
2022-10-17T08:22:51.551Z,14.48
2022-10-17T08:25:55.111Z,14.64
2022-10-17T08:28:59.031Z,14.78
2022-10-17T08:32:02.410Z,14.87
2022-10-17T08:35:16.883Z,14.81
2022-10-17T08:38:21.033Z,14.84
2022-10-17T08:41:33.564Z,14.86
2022-10-17T08:44:44.919Z,15.02
2022-10-17T08:47:51.580Z,15.18
2022-10-17T08:51:13.954Z,15.32
2022-10-17T08:54:54.812Z,15.42
2022-10-17T08:58:03.800Z,15.36
2022-10-17T09:01:25.412Z,15.54
2022-10-17T09:04:46.321Z,15.40
2022-10-17T09:08:07.446Z,15.57
2022-10-17T09:11:23.315Z,15.86
2022-10-17T09:14:46.812Z,16.06
2022-10-17T09:17:55.103Z,16.04
2022-10-17T09:25:02.489Z,16.08
2022-10-17T09:28:13.857Z,16.28
2022-10-17T09:31:25.256Z,16.45
2022-10-17T09:34:30.468Z,16.66
2022-10-17T09:37:32.936Z,16.85
2022-10-17T09:40:35.746Z,16.75
2022-10-17T09:43:41.689Z,16.89
2022-10-17T09:46:58.848Z,17.02
2022-10-17T09:50:03.080Z,17.24
2022-10-17T09:53:19.736Z,17.32
2022-10-17T09:56:22.381Z,17.33
2022-10-17T09:59:43.836Z,17.31
2022-10-17T10:02:50.063Z,17.34
2022-10-17T10:06:18.170Z,17.41
2022-10-17T10:09:23.640Z,17.46
2022-10-17T10:12:28.102Z,17.71
2022-10-17T10:15:36.480Z,17.82
2022-10-17T10:18:43.898Z,17.92
2022-10-17T10:22:04.229Z,18.07
2022-10-17T10:25:08.013Z,18.08
2022-10-17T10:28:20.899Z,18.26
2022-10-17T10:31:27.582Z,18.39
2022-10-17T10:34:41.621Z,18.55
2022-10-17T10:37:46.847Z,18.69
2022-10-17T10:40:54.671Z,18.72
2022-10-17T10:43:57.812Z,18.80
2022-10-17T10:47:08.155Z,18.87
2022-10-17T10:50:25.042Z,19.13
2022-10-17T10:53:34.208Z,19.22
2022-10-17T10:56:44.362Z,19.29
2022-10-17T11:00:10.051Z,19.34
2022-10-17T11:03:22.901Z,19.29
2022-10-17T11:06:29.429Z,19.39
2022-10-17T11:09:41.843Z,19.33
2022-10-17T11:16:06.128Z,19.60
2022-10-17T11:19:17.860Z,19.65
2022-10-17T11:22:34.191Z,19.60
2022-10-17T11:25:40.283Z,19.70
2022-10-17T11:28:47.167Z,19.70
2022-10-17T11:31:51.758Z,19.79
2022-10-17T11:34:59.243Z,19.94
2022-10-17T11:38:13.697Z,20.02
2022-10-17T11:41:29.757Z,20.06
2022-10-17T11:44:36.491Z,20.09
2022-10-17T11:47:40.341Z,20.19
2022-10-17T11:54:22.229Z,20.09
2022-10-17T11:57:27.589Z,20.28
2022-10-17T12:00:40.863Z,20.37
2022-10-17T12:04:46.274Z,20.44
2022-10-17T12:07:53.348Z,20.41
2022-10-17T12:11:02.198Z,20.43
2022-10-17T12:14:26.730Z,20.52
2022-10-17T12:17:39.575Z,20.42
2022-10-17T12:20:56.003Z,20.23
2022-10-17T12:23:58.237Z,20.32
2022-10-17T12:27:19.429Z,20.46
2022-10-17T12:30:24.624Z,20.50
2022-10-17T12:33:47.832Z,20.54
2022-10-17T12:36:53.804Z,20.43
2022-10-17T12:39:57.580Z,20.55
2022-10-17T12:43:04.000Z,20.54
2022-10-17T12:46:08.527Z,20.55
2022-10-17T12:49:40.114Z,20.78
2022-10-17T12:52:42.419Z,20.81
2022-10-17T12:55:45.608Z,20.84
2022-10-17T12:58:52.858Z,20.82
2022-10-17T13:01:58.415Z,20.72
2022-10-17T13:05:06.649Z,20.45
2022-10-17T13:08:15.974Z,20.26
2022-10-17T13:11:31.417Z,20.14
2022-10-17T13:14:36.183Z,20.20
2022-10-17T13:17:43.041Z,20.35
2022-10-17T13:20:54.505Z,20.35
2022-10-17T13:24:04.017Z,20.41
2022-10-17T13:27:21.932Z,20.44
2022-10-17T13:30:27.962Z,20.39
2022-10-17T13:33:40.820Z,20.50
2022-10-17T13:36:48.505Z,20.56
2022-10-17T13:39:58.098Z,20.61
2022-10-17T13:43:33.865Z,20.61
2022-10-17T13:46:39.920Z,20.61
2022-10-17T13:49:43.199Z,20.71
2022-10-17T13:53:05.370Z,20.53
2022-10-17T13:56:29.679Z,20.38
2022-10-17T13:59:51.718Z,20.37
2022-10-17T14:03:06.777Z,20.40
2022-10-17T14:06:15.528Z,20.42
2022-10-17T14:09:26.108Z,20.26
2022-10-17T14:12:33.665Z,20.26
2022-10-17T14:15:46.154Z,20.26
2022-10-17T14:18:50.242Z,20.21
2022-10-17T14:21:57.208Z,20.17
2022-10-17T14:25:02.763Z,20.15
2022-10-17T14:28:09.911Z,20.05
2022-10-17T14:31:25.956Z,19.99
2022-10-17T14:34:40.097Z,19.84
2022-10-17T14:37:47.182Z,19.79
2022-10-17T14:40:50.741Z,19.73
2022-10-17T14:43:57.792Z,19.52
2022-10-17T14:47:30.735Z,19.40
2022-10-17T14:54:05.444Z,19.23
2022-10-17T14:57:15.098Z,19.04
2022-10-17T15:00:18.615Z,18.88
2022-10-17T15:03:23.993Z,18.78
2022-10-17T15:06:35.298Z,18.64
2022-10-17T15:09:40.126Z,18.54
2022-10-17T15:12:58.793Z,18.40
2022-10-17T15:16:16.379Z,18.29
2022-10-17T15:19:24.617Z,18.17
2022-10-17T15:22:30.731Z,18.01
2022-10-17T15:25:36.140Z,17.88
2022-10-17T15:28:44.000Z,17.75
2022-10-17T15:31:51.949Z,17.59
2022-10-17T15:34:54.511Z,17.45
2022-10-17T15:37:57.041Z,17.30
2022-10-17T15:41:00.197Z,17.15
2022-10-17T15:44:04.350Z,17.02
2022-10-17T15:47:07.580Z,16.88
2022-10-17T15:50:16.270Z,16.74
2022-10-17T15:53:28.237Z,16.61
2022-10-17T15:56:32.630Z,16.46
2022-10-17T15:59:35.856Z,16.31
2022-10-17T16:02:38.751Z,16.12
2022-10-17T16:05:43.780Z,15.96
2022-10-17T16:08:47.491Z,15.79
2022-10-17T16:11:50.071Z,15.60
2022-10-17T16:14:56.849Z,15.46
2022-10-17T16:18:02.788Z,15.33
2022-10-17T16:21:10.430Z,15.22
2022-10-17T16:24:14.142Z,15.02
2022-10-17T16:27:17.432Z,14.84
2022-10-17T16:33:26.092Z,14.57
2022-10-17T16:36:29.560Z,14.43
2022-10-17T16:39:40.762Z,14.35
2022-10-17T16:42:44.623Z,14.24
2022-10-17T16:45:47.035Z,14.18
2022-10-17T16:48:49.850Z,14.06
2022-10-17T16:51:56.424Z,13.98
2022-10-17T16:55:01.246Z,13.87
2022-10-17T16:58:03.682Z,13.80
2022-10-17T17:01:07.251Z,13.73
2022-10-17T17:04:10.338Z,13.65
2022-10-17T17:07:14.397Z,13.55
2022-10-17T17:10:21.948Z,13.52
2022-10-17T17:13:24.445Z,13.46
2022-10-17T17:16:36.726Z,13.38
2022-10-17T17:19:38.929Z,13.32
2022-10-17T17:22:41.450Z,13.22
2022-10-17T17:25:47.230Z,13.18
2022-10-17T17:28:49.920Z,13.13
2022-10-17T17:31:52.400Z,13.17
2022-10-17T17:34:55.852Z,13.12
2022-10-17T17:37:59.204Z,12.98
2022-10-17T17:41:01.695Z,12.92
2022-10-17T17:44:06.002Z,12.97
2022-10-17T17:47:08.482Z,12.96
2022-10-17T17:50:11.429Z,12.90
2022-10-17T17:53:16.596Z,12.81
2022-10-17T17:56:20.222Z,12.73
2022-10-17T17:59:23.409Z,12.77
2022-10-17T18:02:29.431Z,12.75
2022-10-17T18:05:31.928Z,12.67
2022-10-17T18:08:35.034Z,12.65
2022-10-17T18:11:37.451Z,12.63
2022-10-17T18:14:46.159Z,12.52
2022-10-17T18:17:51.310Z,12.46
2022-10-17T18:21:00.536Z,12.49
2022-10-17T18:24:08.696Z,12.52
2022-10-17T18:27:22.744Z,12.49
2022-10-17T18:30:28.043Z,12.42
2022-10-17T18:33:33.473Z,12.40
2022-10-17T18:36:35.940Z,12.34
2022-10-17T18:39:38.213Z,12.33
2022-10-17T18:42:45.009Z,12.30
2022-10-17T18:45:47.263Z,12.25
2022-10-17T18:48:51.089Z,12.21
2022-10-17T18:51:53.991Z,12.18
2022-10-17T18:54:58.946Z,12.16
2022-10-17T18:58:01.589Z,12.14
2022-10-17T19:01:05.191Z,12.13
2022-10-17T19:04:09.374Z,12.04
2022-10-17T19:07:12.037Z,12.02
2022-10-17T19:10:14.656Z,12.00
2022-10-17T19:13:21.857Z,11.97
2022-10-17T19:16:35.190Z,11.92
2022-10-17T19:19:43.789Z,11.99
2022-10-17T19:22:47.154Z,11.98
2022-10-17T19:25:50.105Z,11.85
2022-10-17T19:28:53.955Z,11.81
2022-10-17T19:35:03.822Z,11.71
2022-10-17T19:38:06.027Z,11.63
2022-10-17T19:41:11.474Z,11.63
2022-10-17T19:44:19.166Z,11.61
2022-10-17T19:50:45.941Z,11.43
2022-10-17T19:53:50.052Z,11.41
2022-10-17T19:56:53.247Z,11.40
2022-10-17T19:59:59.706Z,11.38
2022-10-17T20:03:03.849Z,11.41
2022-10-17T20:06:11.540Z,11.35
2022-10-17T20:09:17.400Z,11.24
2022-10-17T20:12:26.653Z,11.25
2022-10-17T20:15:35.465Z,11.17
2022-10-17T20:18:40.127Z,11.13
2022-10-17T20:21:43.175Z,11.10
2022-10-17T20:24:45.394Z,11.03
2022-10-17T20:27:48.445Z,10.99
2022-10-17T20:30:53.071Z,10.94
2022-10-17T20:33:56.400Z,11.04
2022-10-17T20:37:06.960Z,10.92
2022-10-17T20:40:34.983Z,10.88
2022-10-17T20:43:40.673Z,10.94
2022-10-17T20:47:01.192Z,10.99
2022-10-17T20:50:05.150Z,11.03
2022-10-17T20:53:35.594Z,10.89
2022-10-17T20:56:33.063Z,10.76
2022-10-17T20:59:36.458Z,10.82
2022-10-17T21:02:39.236Z,10.75
2022-10-17T21:05:42.466Z,10.80
2022-10-17T21:08:47.430Z,10.74
2022-10-17T21:11:55.961Z,10.77
2022-10-17T21:14:59.608Z,10.72
2022-10-17T21:18:05.182Z,10.75
2022-10-17T21:21:09.293Z,10.64
2022-10-17T21:24:14.238Z,10.53
2022-10-17T21:27:18.127Z,10.50
2022-10-17T21:30:21.436Z,10.48
2022-10-17T21:33:24.939Z,10.45
2022-10-17T21:36:27.880Z,10.39
2022-10-17T21:39:31.830Z,10.41
2022-10-17T21:42:39.264Z,10.38
2022-10-17T21:45:45.051Z,10.31
2022-10-17T21:48:49.031Z,10.28
2022-10-17T21:51:57.781Z,10.22
2022-10-17T21:55:00.536Z,10.24
2022-10-17T21:58:06.629Z,10.15
2022-10-17T22:01:12.847Z,10.11
2022-10-17T22:04:17.531Z,10.13
2022-10-17T22:07:25.419Z,10.08
2022-10-17T22:10:27.757Z,10.07
2022-10-17T22:13:34.017Z,10.15
2022-10-17T22:16:39.169Z,10.07
2022-10-17T22:19:51.625Z,10.01
2022-10-17T22:22:59.814Z,9.99
2022-10-17T22:26:04.156Z,10.02
2022-10-17T22:29:15.914Z,10.06
2022-10-17T22:32:25.006Z,10.03
2022-10-17T22:35:51.784Z,9.97
2022-10-17T22:38:54.283Z,9.90
2022-10-17T22:42:07.284Z,9.88
2022-10-17T22:45:21.689Z,9.83
2022-10-17T22:48:45.928Z,9.80
2022-10-17T22:51:51.223Z,9.73
2022-10-17T22:55:19.867Z,9.73
2022-10-17T23:01:43.140Z,9.70
2022-10-17T23:05:02.936Z,9.76
2022-10-17T23:08:22.986Z,9.78
2022-10-17T23:11:25.113Z,9.70
2022-10-17T23:14:40.120Z,9.65
2022-10-17T23:21:09.299Z,9.60
2022-10-17T23:24:17.776Z,9.59
2022-10-17T23:27:22.327Z,9.57
2022-10-17T23:30:31.214Z,9.59
2022-10-17T23:33:57.187Z,9.55
2022-10-17T23:37:20.697Z,9.54
2022-10-17T23:40:23.512Z,9.43
2022-10-17T23:43:42.638Z,9.41
2022-10-17T23:46:45.309Z,9.40
2022-10-17T23:49:57.120Z,9.32
2022-10-17T23:52:59.608Z,9.29
2022-10-17T23:56:20.230Z,9.28
2022-10-17T23:59:32.369Z,9.24
